sensor_id;sensor_type;location;lat;lon;timestamp;temperature;humidity
52397;DHT22;38322;53.108;6.308;2024-03-08T06:02:49;0.10;99.90
52397;DHT22;38322;53.108;6.308;2024-03-08T06:05:15;0.00;99.90
52397;DHT22;38322;53.108;6.308;2024-03-08T06:07:40;0.00;99.90
52397;DHT22;38322;53.108;6.308;2024-03-08T06:10:08;0.00;99.90
52397;DHT22;38322;53.108;6.308;2024-03-08T06:12:36;0.10;99.90
52397;DHT22;38322;53.108;6.308;2024-03-08T06:15:07;0.00;99.90
52397;DHT22;38322;53.108;6.308;2024-03-08T06:17:33;0.10;99.90
52397;DHT22;38322;53.108;6.308;2024-03-08T06:19:59;0.00;99.90
52397;DHT22;38322;53.108;6.308;2024-03-08T06:22:25;0.10;99.90
52397;DHT22;38322;53.108;6.308;2024-03-08T06:24:51;0.00;99.90
52397;DHT22;38322;53.108;6.308;2024-03-08T06:27:17;0.00;99.90
52397;DHT22;38322;53.108;6.308;2024-03-08T06:29:43;0.00;99.90
52397;DHT22;38322;53.108;6.308;2024-03-08T06:32:08;0.00;99.90
52397;DHT22;38322;53.108;6.308;2024-03-08T06:34:34;0.10;99.90
52397;DHT22;38322;53.108;6.308;2024-03-08T06:37:00;0.10;99.90
52397;DHT22;38322;53.108;6.308;2024-03-08T06:39:27;0.10;99.90
52397;DHT22;38322;53.108;6.308;2024-03-08T06:41:57;0.20;99.90
52397;DHT22;38322;53.108;6.308;2024-03-08T06:44:23;0.20;99.90
52397;DHT22;38322;53.108;6.308;2024-03-08T06:46:49;0.20;99.90
52397;DHT22;38322;53.108;6.308;2024-03-08T06:49:15;0.30;99.90
52397;DHT22;38322;53.108;6.308;2024-03-08T06:51:41;0.30;99.90
52397;DHT22;38322;53.108;6.308;2024-03-08T06:54:07;0.40;99.90
52397;DHT22;38322;53.108;6.308;2024-03-08T06:56:35;0.40;99.90
52397;DHT22;38322;53.108;6.308;2024-03-08T06:59:00;0.50;99.90
52397;DHT22;38322;53.108;6.308;2024-03-08T07:01:29;0.50;99.90
52397;DHT22;38322;53.108;6.308;2024-03-08T07:03:58;0.60;99.90
52397;DHT22;38322;53.108;6.308;2024-03-08T07:06:23;0.60;99.90
52397;DHT22;38322;53.108;6.308;2024-03-08T07:08:49;0.70;99.90
52397;DHT22;38322;53.108;6.308;2024-03-08T07:11:15;0.70;99.90
52397;DHT22;38322;53.108;6.308;2024-03-08T07:13:45;0.80;99.90
52397;DHT22;38322;53.108;6.308;2024-03-08T07:16:11;0.80;99.90
52397;DHT22;38322;53.108;6.308;2024-03-08T07:18:37;0.90;99.90
52397;DHT22;38322;53.108;6.308;2024-03-08T07:21:09;1.00;99.90
52397;DHT22;38322;53.108;6.308;2024-03-08T07:23:36;1.00;99.90
52397;DHT22;38322;53.108;6.308;2024-03-08T07:26:21;1.10;99.90
52397;DHT22;38322;53.108;6.308;2024-03-08T07:28:47;1.10;99.90
52397;DHT22;38322;53.108;6.308;2024-03-08T07:31:12;1.20;99.90
52397;DHT22;38322;53.108;6.308;2024-03-08T07:33:42;1.30;99.90
52397;DHT22;38322;53.108;6.308;2024-03-08T07:36:08;1.30;99.90
52397;DHT22;38322;53.108;6.308;2024-03-08T07:38:34;1.30;99.90
52397;DHT22;38322;53.108;6.308;2024-03-08T07:41:00;1.40;99.90
52397;DHT22;38322;53.108;6.308;2024-03-08T07:43:26;1.40;99.90
52397;DHT22;38322;53.108;6.308;2024-03-08T07:45:52;1.50;99.90
52397;DHT22;38322;53.108;6.308;2024-03-08T07:48:20;1.60;99.90
52397;DHT22;38322;53.108;6.308;2024-03-08T07:50:46;1.60;99.90
52397;DHT22;38322;53.108;6.308;2024-03-08T07:53:12;1.70;99.90
52397;DHT22;38322;53.108;6.308;2024-03-08T07:55:38;1.70;99.90
52397;DHT22;38322;53.108;6.308;2024-03-08T07:58:05;1.80;99.90
52397;DHT22;38322;53.108;6.308;2024-03-08T08:00:32;1.80;99.90
52397;DHT22;38322;53.108;6.308;2024-03-08T08:02:58;1.90;99.90
52397;DHT22;38322;53.108;6.308;2024-03-08T08:05:24;1.90;99.90
52397;DHT22;38322;53.108;6.308;2024-03-08T08:07:50;2.00;99.90
52397;DHT22;38322;53.108;6.308;2024-03-08T08:10:18;2.00;99.90
52397;DHT22;38322;53.108;6.308;2024-03-08T08:12:48;2.10;99.90
52397;DHT22;38322;53.108;6.308;2024-03-08T08:15:14;2.10;99.90
52397;DHT22;38322;53.108;6.308;2024-03-08T08:17:44;2.20;99.90
52397;DHT22;38322;53.108;6.308;2024-03-08T08:20:11;2.30;99.90
52397;DHT22;38322;53.108;6.308;2024-03-08T08:22:40;2.40;99.90
52397;DHT22;38322;53.108;6.308;2024-03-08T08:25:07;2.50;99.90
52397;DHT22;38322;53.108;6.308;2024-03-08T08:27:33;2.60;99.90
52397;DHT22;38322;53.108;6.308;2024-03-08T08:29:59;2.70;99.90
52397;DHT22;38322;53.108;6.308;2024-03-08T08:32:25;2.70;99.90
52397;DHT22;38322;53.108;6.308;2024-03-08T08:34:52;2.80;99.90
52397;DHT22;38322;53.108;6.308;2024-03-08T08:37:17;2.80;99.90
52397;DHT22;38322;53.108;6.308;2024-03-08T08:39:43;2.90;99.90
52397;DHT22;38322;53.108;6.308;2024-03-08T08:42:09;3.00;99.90
52397;DHT22;38322;53.108;6.308;2024-03-08T08:44:35;3.10;99.90
52397;DHT22;38322;53.108;6.308;2024-03-08T08:47:01;3.10;99.90
52397;DHT22;38322;53.108;6.308;2024-03-08T08:49:29;3.10;99.90
52397;DHT22;38322;53.108;6.308;2024-03-08T08:51:56;3.10;99.90
52397;DHT22;38322;53.108;6.308;2024-03-08T08:54:24;3.20;99.90
52397;DHT22;38322;53.108;6.308;2024-03-08T08:56:51;3.30;99.90
52397;DHT22;38322;53.108;6.308;2024-03-08T08:59:17;3.30;99.90
52397;DHT22;38322;53.108;6.308;2024-03-08T09:01:46;3.30;99.90
52397;DHT22;38322;53.108;6.308;2024-03-08T09:04:13;3.40;99.90
52397;DHT22;38322;53.108;6.308;2024-03-08T09:06:39;3.60;99.90
52397;DHT22;38322;53.108;6.308;2024-03-08T09:09:10;3.60;99.90
52397;DHT22;38322;53.108;6.308;2024-03-08T09:11:39;3.60;99.90
52397;DHT22;38322;53.108;6.308;2024-03-08T09:14:07;3.60;99.90
52397;DHT22;38322;53.108;6.308;2024-03-08T09:16:33;3.60;99.90
52397;DHT22;38322;53.108;6.308;2024-03-08T09:18:59;3.70;99.90
52397;DHT22;38322;53.108;6.308;2024-03-08T09:21:25;3.70;99.90
52397;DHT22;38322;53.108;6.308;2024-03-08T09:23:53;3.80;99.90
52397;DHT22;38322;53.108;6.308;2024-03-08T09:26:19;3.80;99.90
52397;DHT22;38322;53.108;6.308;2024-03-08T09:28:45;3.90;99.90
52397;DHT22;38322;53.108;6.308;2024-03-08T09:31:11;3.90;99.90
52397;DHT22;38322;53.108;6.308;2024-03-08T09:33:37;3.90;99.90
52397;DHT22;38322;53.108;6.308;2024-03-08T09:36:06;3.90;99.90
52397;DHT22;38322;53.108;6.308;2024-03-08T09:38:33;3.90;99.90
52397;DHT22;38322;53.108;6.308;2024-03-08T09:41:01;3.90;99.90
52397;DHT22;38322;53.108;6.308;2024-03-08T09:43:29;3.90;99.90
52397;DHT22;38322;53.108;6.308;2024-03-08T09:45:57;3.90;99.90
52397;DHT22;38322;53.108;6.308;2024-03-08T09:48:23;4.00;99.90
52397;DHT22;38322;53.108;6.308;2024-03-08T09:50:49;4.10;99.90
52397;DHT22;38322;53.108;6.308;2024-03-08T09:53:15;4.10;99.90
52397;DHT22;38322;53.108;6.308;2024-03-08T09:55:42;4.00;99.90
52397;DHT22;38322;53.108;6.308;2024-03-08T09:58:12;4.10;99.90
52397;DHT22;38322;53.108;6.308;2024-03-08T10:00:45;4.20;99.90
52397;DHT22;38322;53.108;6.308;2024-03-08T10:03:10;4.20;99.90
52397;DHT22;38322;53.108;6.308;2024-03-08T10:05:36;4.20;99.90
52397;DHT22;38322;53.108;6.308;2024-03-08T10:08:03;4.20;99.90
52397;DHT22;38322;53.108;6.308;2024-03-08T10:10:30;4.30;99.90
52397;DHT22;38322;53.108;6.308;2024-03-08T10:12:56;4.40;99.90
52397;DHT22;38322;53.108;6.308;2024-03-08T10:15:22;4.40;99.90
52397;DHT22;38322;53.108;6.308;2024-03-08T10:17:49;4.40;99.90
52397;DHT22;38322;53.108;6.308;2024-03-08T10:20:16;4.50;99.90
52397;DHT22;38322;53.108;6.308;2024-03-08T10:22:42;4.50;99.90
52397;DHT22;38322;53.108;6.308;2024-03-08T10:25:11;4.50;99.90
52397;DHT22;38322;53.108;6.308;2024-03-08T10:27:39;4.70;99.90
52397;DHT22;38322;53.108;6.308;2024-03-08T10:30:10;4.80;99.90
52397;DHT22;38322;53.108;6.308;2024-03-08T10:32:38;4.90;99.90
52397;DHT22;38322;53.108;6.308;2024-03-08T10:35:07;4.90;99.90
52397;DHT22;38322;53.108;6.308;2024-03-08T10:37:47;5.00;99.90
52397;DHT22;38322;53.108;6.308;2024-03-08T10:40:18;5.00;99.90
52397;DHT22;38322;53.108;6.308;2024-03-08T10:42:55;5.10;99.90
52397;DHT22;38322;53.108;6.308;2024-03-08T10:45:34;5.10;99.90
52397;DHT22;38322;53.108;6.308;2024-03-08T10:48:28;5.20;99.90
52397;DHT22;38322;53.108;6.308;2024-03-08T10:50:59;5.10;99.90
52397;DHT22;38322;53.108;6.308;2024-03-08T10:53:28;5.10;99.90
52397;DHT22;38322;53.108;6.308;2024-03-08T10:55:57;5.10;99.90
52397;DHT22;38322;53.108;6.308;2024-03-08T10:58:26;5.20;99.90
52397;DHT22;38322;53.108;6.308;2024-03-08T11:00:54;5.20;99.90
52397;DHT22;38322;53.108;6.308;2024-03-08T11:03:46;5.20;99.90
52397;DHT22;38322;53.108;6.308;2024-03-08T11:08:41;5.40;99.90
52397;DHT22;38322;53.108;6.308;2024-03-08T11:11:24;5.50;99.90
52397;DHT22;38322;53.108;6.308;2024-03-08T11:13:57;5.60;99.90
52397;DHT22;38322;53.108;6.308;2024-03-08T11:18:53;5.70;99.90
52397;DHT22;38322;53.108;6.308;2024-03-08T11:21:20;5.80;99.90
52397;DHT22;38322;53.108;6.308;2024-03-08T11:24:00;5.90;99.90
52397;DHT22;38322;53.108;6.308;2024-03-08T11:26:29;5.90;99.90
52397;DHT22;38322;53.108;6.308;2024-03-08T11:32:09;5.80;99.90
52397;DHT22;38322;53.108;6.308;2024-03-08T11:34:36;5.80;99.90
52397;DHT22;38322;53.108;6.308;2024-03-08T11:37:04;5.90;99.90
52397;DHT22;38322;53.108;6.308;2024-03-08T11:39:31;5.90;99.90
52397;DHT22;38322;53.108;6.308;2024-03-08T11:41:57;6.10;99.90
52397;DHT22;38322;53.108;6.308;2024-03-08T11:44:27;6.20;99.90
52397;DHT22;38322;53.108;6.308;2024-03-08T11:46:53;6.30;99.90
52397;DHT22;38322;53.108;6.308;2024-03-08T11:49:19;6.30;99.90
52397;DHT22;38322;53.108;6.308;2024-03-08T11:51:46;6.40;99.90
52397;DHT22;38322;53.108;6.308;2024-03-08T11:54:13;6.50;99.90
52397;DHT22;38322;53.108;6.308;2024-03-08T11:56:39;6.60;99.90
52397;DHT22;38322;53.108;6.308;2024-03-08T11:59:11;6.70;99.90
52397;DHT22;38322;53.108;6.308;2024-03-08T12:01:39;6.70;99.90
52397;DHT22;38322;53.108;6.308;2024-03-08T12:04:05;6.70;99.90
52397;DHT22;38322;53.108;6.308;2024-03-08T12:06:39;6.70;99.90
52397;DHT22;38322;53.108;6.308;2024-03-08T12:09:11;6.70;99.90
52397;DHT22;38322;53.108;6.308;2024-03-08T12:11:39;6.70;99.90
52397;DHT22;38322;53.108;6.308;2024-03-08T12:14:06;6.80;99.90
52397;DHT22;38322;53.108;6.308;2024-03-08T12:16:32;6.90;99.90
52397;DHT22;38322;53.108;6.308;2024-03-08T12:18:59;6.90;99.90
52397;DHT22;38322;53.108;6.308;2024-03-08T12:21:26;7.00;99.90
52397;DHT22;38322;53.108;6.308;2024-03-08T12:24:08;7.00;99.90
52397;DHT22;38322;53.108;6.308;2024-03-08T12:26:36;7.10;99.90
52397;DHT22;38322;53.108;6.308;2024-03-08T12:29:25;7.10;99.90
52397;DHT22;38322;53.108;6.308;2024-03-08T12:31:54;7.20;99.90
52397;DHT22;38322;53.108;6.308;2024-03-08T12:34:21;7.20;99.90
52397;DHT22;38322;53.108;6.308;2024-03-08T12:36:50;7.20;99.90
52397;DHT22;38322;53.108;6.308;2024-03-08T12:39:19;7.30;99.90
52397;DHT22;38322;53.108;6.308;2024-03-08T12:41:54;7.30;99.90
52397;DHT22;38322;53.108;6.308;2024-03-08T12:44:20;7.40;99.90
52397;DHT22;38322;53.108;6.308;2024-03-08T12:46:47;7.50;99.90
52397;DHT22;38322;53.108;6.308;2024-03-08T12:49:14;7.40;99.90
52397;DHT22;38322;53.108;6.308;2024-03-08T12:51:44;7.60;99.90
52397;DHT22;38322;53.108;6.308;2024-03-08T12:54:10;7.50;99.90
52397;DHT22;38322;53.108;6.308;2024-03-08T12:56:36;7.50;99.90
52397;DHT22;38322;53.108;6.308;2024-03-08T12:59:04;7.50;99.90
52397;DHT22;38322;53.108;6.308;2024-03-08T13:01:31;7.50;99.90
52397;DHT22;38322;53.108;6.308;2024-03-08T13:03:58;7.60;99.90
52397;DHT22;38322;53.108;6.308;2024-03-08T13:06:24;7.60;99.90
52397;DHT22;38322;53.108;6.308;2024-03-08T13:08:51;7.60;99.90
52397;DHT22;38322;53.108;6.308;2024-03-08T13:11:18;7.60;99.90
52397;DHT22;38322;53.108;6.308;2024-03-08T13:13:45;7.60;99.90
52397;DHT22;38322;53.108;6.308;2024-03-08T13:16:11;7.60;99.90
52397;DHT22;38322;53.108;6.308;2024-03-08T13:18:41;7.60;99.90
52397;DHT22;38322;53.108;6.308;2024-03-08T13:21:08;7.70;99.90
52397;DHT22;38322;53.108;6.308;2024-03-08T13:23:35;7.70;99.90
52397;DHT22;38322;53.108;6.308;2024-03-08T13:26:12;7.80;99.90
52397;DHT22;38322;53.108;6.308;2024-03-08T13:28:43;7.80;99.90
52397;DHT22;38322;53.108;6.308;2024-03-08T13:31:09;7.90;99.90
52397;DHT22;38322;53.108;6.308;2024-03-08T13:33:37;8.00;99.90
52397;DHT22;38322;53.108;6.308;2024-03-08T13:36:06;8.00;99.90
52397;DHT22;38322;53.108;6.308;2024-03-08T13:38:41;7.90;99.90
52397;DHT22;38322;53.108;6.308;2024-03-08T13:41:09;8.00;99.90
52397;DHT22;38322;53.108;6.308;2024-03-08T13:43:35;8.00;99.90
52397;DHT22;38322;53.108;6.308;2024-03-08T13:46:03;8.00;99.90
52397;DHT22;38322;53.108;6.308;2024-03-08T13:48:30;8.00;99.90
52397;DHT22;38322;53.108;6.308;2024-03-08T13:50:57;8.00;99.90
52397;DHT22;38322;53.108;6.308;2024-03-08T13:53:23;8.00;99.90
52397;DHT22;38322;53.108;6.308;2024-03-08T13:55:49;8.00;99.90
52397;DHT22;38322;53.108;6.308;2024-03-08T13:58:16;8.00;99.90
52397;DHT22;38322;53.108;6.308;2024-03-08T14:00:42;8.00;99.90
52397;DHT22;38322;53.108;6.308;2024-03-08T14:03:10;8.00;99.90
52397;DHT22;38322;53.108;6.308;2024-03-08T14:05:40;7.90;99.90
52397;DHT22;38322;53.108;6.308;2024-03-08T14:08:07;8.00;99.90
52397;DHT22;38322;53.108;6.308;2024-03-08T14:10:34;8.00;99.90
52397;DHT22;38322;53.108;6.308;2024-03-08T14:13:00;8.00;99.90
52397;DHT22;38322;53.108;6.308;2024-03-08T14:15:28;8.00;99.90
52397;DHT22;38322;53.108;6.308;2024-03-08T14:17:56;8.10;99.90
52397;DHT22;38322;53.108;6.308;2024-03-08T14:20:23;8.00;99.90
52397;DHT22;38322;53.108;6.308;2024-03-08T14:22:52;8.00;99.90
52397;DHT22;38322;53.108;6.308;2024-03-08T14:25:18;8.10;99.90
52397;DHT22;38322;53.108;6.308;2024-03-08T14:27:45;8.00;99.90
52397;DHT22;38322;53.108;6.308;2024-03-08T14:30:13;8.00;99.90
52397;DHT22;38322;53.108;6.308;2024-03-08T14:32:40;8.00;99.90
52397;DHT22;38322;53.108;6.308;2024-03-08T14:35:07;8.00;99.90
52397;DHT22;38322;53.108;6.308;2024-03-08T14:37:33;8.00;99.90
52397;DHT22;38322;53.108;6.308;2024-03-08T14:39:59;8.00;99.90
52397;DHT22;38322;53.108;6.308;2024-03-08T14:42:25;8.00;99.90
52397;DHT22;38322;53.108;6.308;2024-03-08T14:44:51;8.00;99.90
52397;DHT22;38322;53.108;6.308;2024-03-08T14:47:19;8.00;99.90
52397;DHT22;38322;53.108;6.308;2024-03-08T14:49:45;7.90;99.90
52397;DHT22;38322;53.108;6.308;2024-03-08T14:52:14;8.00;99.90
52397;DHT22;38322;53.108;6.308;2024-03-08T14:54:54;8.00;99.90
52397;DHT22;38322;53.108;6.308;2024-03-08T14:57:21;8.00;99.90
52397;DHT22;38322;53.108;6.308;2024-03-08T14:59:47;8.10;99.90
52397;DHT22;38322;53.108;6.308;2024-03-08T15:02:13;8.00;99.90
52397;DHT22;38322;53.108;6.308;2024-03-08T15:04:39;8.00;99.90
52397;DHT22;38322;53.108;6.308;2024-03-08T15:07:07;8.00;99.90
52397;DHT22;38322;53.108;6.308;2024-03-08T15:09:36;8.00;99.90
52397;DHT22;38322;53.108;6.308;2024-03-08T15:12:06;8.00;99.90
52397;DHT22;38322;53.108;6.308;2024-03-08T15:14:32;8.00;99.90
52397;DHT22;38322;53.108;6.308;2024-03-08T15:16:58;7.90;99.90
52397;DHT22;38322;53.108;6.308;2024-03-08T15:19:24;7.90;99.90
52397;DHT22;38322;53.108;6.308;2024-03-08T15:21:51;7.90;99.90
52397;DHT22;38322;53.108;6.308;2024-03-08T15:24:21;7.80;99.90
52397;DHT22;38322;53.108;6.308;2024-03-08T15:26:49;7.80;99.90
52397;DHT22;38322;53.108;6.308;2024-03-08T15:29:16;7.80;99.90
52397;DHT22;38322;53.108;6.308;2024-03-08T15:31:49;7.80;99.90
52397;DHT22;38322;53.108;6.308;2024-03-08T15:34:17;7.80;99.90
52397;DHT22;38322;53.108;6.308;2024-03-08T15:36:46;7.70;99.90
52397;DHT22;38322;53.108;6.308;2024-03-08T15:39:15;7.70;99.90
52397;DHT22;38322;53.108;6.308;2024-03-08T15:41:41;7.70;99.90
52397;DHT22;38322;53.108;6.308;2024-03-08T15:44:10;7.60;99.90
52397;DHT22;38322;53.108;6.308;2024-03-08T15:46:38;7.60;99.90
52397;DHT22;38322;53.108;6.308;2024-03-08T15:49:06;7.50;99.90
52397;DHT22;38322;53.108;6.308;2024-03-08T15:51:32;7.50;99.90
52397;DHT22;38322;53.108;6.308;2024-03-08T15:53:59;7.50;99.90
52397;DHT22;38322;53.108;6.308;2024-03-08T15:56:25;7.40;99.90
52397;DHT22;38322;53.108;6.308;2024-03-08T15:58:51;7.40;99.90
52397;DHT22;38322;53.108;6.308;2024-03-08T16:01:18;7.30;99.90
52397;DHT22;38322;53.108;6.308;2024-03-08T16:03:44;7.30;99.90
52397;DHT22;38322;53.108;6.308;2024-03-08T16:06:11;7.30;99.90
52397;DHT22;38322;53.108;6.308;2024-03-08T16:08:37;7.20;99.90
52397;DHT22;38322;53.108;6.308;2024-03-08T16:11:05;7.20;99.90
52397;DHT22;38322;53.108;6.308;2024-03-08T16:13:34;7.20;99.90
52397;DHT22;38322;53.108;6.308;2024-03-08T16:16:04;7.10;99.90
52397;DHT22;38322;53.108;6.308;2024-03-08T16:18:30;7.10;99.90
52397;DHT22;38322;53.108;6.308;2024-03-08T16:20:58;7.10;99.90
52397;DHT22;38322;53.108;6.308;2024-03-08T16:23:24;7.10;99.90
52397;DHT22;38322;53.108;6.308;2024-03-08T16:25:51;7.00;99.90
52397;DHT22;38322;53.108;6.308;2024-03-08T16:28:18;7.00;99.90
52397;DHT22;38322;53.108;6.308;2024-03-08T16:30:49;6.90;99.90
52397;DHT22;38322;53.108;6.308;2024-03-08T16:33:16;6.90;99.90
52397;DHT22;38322;53.108;6.308;2024-03-08T16:35:42;6.90;99.90
52397;DHT22;38322;53.108;6.308;2024-03-08T16:38:10;6.90;99.90
52397;DHT22;38322;53.108;6.308;2024-03-08T16:40:39;6.80;99.90
52397;DHT22;38322;53.108;6.308;2024-03-08T16:43:05;6.80;99.90
52397;DHT22;38322;53.108;6.308;2024-03-08T16:45:31;6.70;99.90
52397;DHT22;38322;53.108;6.308;2024-03-08T16:47:57;6.80;99.90
52397;DHT22;38322;53.108;6.308;2024-03-08T16:50:23;6.60;99.90
52397;DHT22;38322;53.108;6.308;2024-03-08T16:52:49;6.60;99.90
52397;DHT22;38322;53.108;6.308;2024-03-08T16:55:16;6.60;99.90
52397;DHT22;38322;53.108;6.308;2024-03-08T16:57:44;6.60;99.90
52397;DHT22;38322;53.108;6.308;2024-03-08T17:00:12;6.50;99.90
52397;DHT22;38322;53.108;6.308;2024-03-08T17:02:39;6.50;99.90
52397;DHT22;38322;53.108;6.308;2024-03-08T17:05:05;6.40;99.90
52397;DHT22;38322;53.108;6.308;2024-03-08T17:07:32;6.40;99.90
52397;DHT22;38322;53.108;6.308;2024-03-08T17:09:59;6.30;99.90
52397;DHT22;38322;53.108;6.308;2024-03-08T17:12:26;6.30;99.90
52397;DHT22;38322;53.108;6.308;2024-03-08T17:14:52;6.30;99.90
52397;DHT22;38322;53.108;6.308;2024-03-08T17:17:18;6.20;99.90
52397;DHT22;38322;53.108;6.308;2024-03-08T17:19:44;6.20;99.90
52397;DHT22;38322;53.108;6.308;2024-03-08T17:22:10;6.10;99.90
52397;DHT22;38322;53.108;6.308;2024-03-08T17:24:36;6.10;99.90
52397;DHT22;38322;53.108;6.308;2024-03-08T17:27:04;6.10;99.90
52397;DHT22;38322;53.108;6.308;2024-03-08T17:29:33;6.10;99.90
52397;DHT22;38322;53.108;6.308;2024-03-08T17:31:59;6.10;99.90
52397;DHT22;38322;53.108;6.308;2024-03-08T17:34:24;6.00;99.90
52397;DHT22;38322;53.108;6.308;2024-03-08T17:36:54;6.00;99.90
52397;DHT22;38322;53.108;6.308;2024-03-08T17:39:24;5.90;99.90
52397;DHT22;38322;53.108;6.308;2024-03-08T17:41:55;5.90;99.90
52397;DHT22;38322;53.108;6.308;2024-03-08T17:44:21;5.90;99.90
52397;DHT22;38322;53.108;6.308;2024-03-08T17:46:48;5.90;99.90
52397;DHT22;38322;53.108;6.308;2024-03-08T17:49:15;5.80;99.90
52397;DHT22;38322;53.108;6.308;2024-03-08T17:51:42;5.80;99.90
52397;DHT22;38322;53.108;6.308;2024-03-08T17:54:09;5.70;99.90
52397;DHT22;38322;53.108;6.308;2024-03-08T17:56:42;5.70;99.90
52397;DHT22;38322;53.108;6.308;2024-03-08T17:59:09;5.70;99.90
52397;DHT22;38322;53.108;6.308;2024-03-08T18:01:38;5.70;99.90
52397;DHT22;38322;53.108;6.308;2024-03-08T18:04:06;5.70;99.90
52397;DHT22;38322;53.108;6.308;2024-03-08T18:06:33;5.70;99.90
52397;DHT22;38322;53.108;6.308;2024-03-08T18:09:03;5.70;99.90
52397;DHT22;38322;53.108;6.308;2024-03-08T18:11:32;5.60;99.90
52397;DHT22;38322;53.108;6.308;2024-03-08T18:14:01;5.60;99.90
52397;DHT22;38322;53.108;6.308;2024-03-08T18:16:33;5.50;99.90
52397;DHT22;38322;53.108;6.308;2024-03-08T18:19:00;5.60;99.90
52397;DHT22;38322;53.108;6.308;2024-03-08T18:21:37;5.50;99.90
52397;DHT22;38322;53.108;6.308;2024-03-08T18:24:04;5.50;99.90
52397;DHT22;38322;53.108;6.308;2024-03-08T18:26:30;5.40;99.90
52397;DHT22;38322;53.108;6.308;2024-03-08T18:29:01;5.40;99.90
52397;DHT22;38322;53.108;6.308;2024-03-08T18:31:30;5.30;99.90
52397;DHT22;38322;53.108;6.308;2024-03-08T18:33:57;5.30;99.90
52397;DHT22;38322;53.108;6.308;2024-03-08T18:36:27;5.30;99.90
52397;DHT22;38322;53.108;6.308;2024-03-08T18:38:57;5.30;99.90
52397;DHT22;38322;53.108;6.308;2024-03-08T18:41:24;5.20;99.90
52397;DHT22;38322;53.108;6.308;2024-03-08T18:43:54;5.20;99.90
52397;DHT22;38322;53.108;6.308;2024-03-08T18:46:24;5.10;99.90
52397;DHT22;38322;53.108;6.308;2024-03-08T18:48:51;5.10;99.90
52397;DHT22;38322;53.108;6.308;2024-03-08T18:51:17;5.10;99.90
52397;DHT22;38322;53.108;6.308;2024-03-08T18:53:43;5.10;99.90
52397;DHT22;38322;53.108;6.308;2024-03-08T18:56:09;5.00;99.90
52397;DHT22;38322;53.108;6.308;2024-03-08T18:58:36;5.00;99.90
52397;DHT22;38322;53.108;6.308;2024-03-08T19:01:02;5.00;99.90
52397;DHT22;38322;53.108;6.308;2024-03-08T19:03:31;5.00;99.90
52397;DHT22;38322;53.108;6.308;2024-03-08T19:05:58;4.90;99.90
52397;DHT22;38322;53.108;6.308;2024-03-08T19:08:24;4.90;99.90
52397;DHT22;38322;53.108;6.308;2024-03-08T19:10:50;4.90;99.90
52397;DHT22;38322;53.108;6.308;2024-03-08T19:13:16;4.80;99.90
52397;DHT22;38322;53.108;6.308;2024-03-08T19:15:42;4.80;99.90
52397;DHT22;38322;53.108;6.308;2024-03-08T19:18:08;4.70;99.90
52397;DHT22;38322;53.108;6.308;2024-03-08T19:20:35;4.80;99.90
52397;DHT22;38322;53.108;6.308;2024-03-08T19:23:03;4.70;99.90
52397;DHT22;38322;53.108;6.308;2024-03-08T19:25:32;4.70;99.90
52397;DHT22;38322;53.108;6.308;2024-03-08T19:28:01;4.60;99.90
52397;DHT22;38322;53.108;6.308;2024-03-08T19:30:30;4.70;99.90
52397;DHT22;38322;53.108;6.308;2024-03-08T19:32:58;4.60;99.90
52397;DHT22;38322;53.108;6.308;2024-03-08T19:35:26;4.60;99.90
52397;DHT22;38322;53.108;6.308;2024-03-08T19:37:53;4.60;99.90
52397;DHT22;38322;53.108;6.308;2024-03-08T19:40:22;4.60;99.90
52397;DHT22;38322;53.108;6.308;2024-03-08T19:42:52;4.60;99.90
52397;DHT22;38322;53.108;6.308;2024-03-08T19:45:20;4.60;99.90
52397;DHT22;38322;53.108;6.308;2024-03-08T19:47:46;4.60;99.90
52397;DHT22;38322;53.108;6.308;2024-03-08T19:50:14;4.60;99.90
52397;DHT22;38322;53.108;6.308;2024-03-08T19:52:48;4.70;99.90
52397;DHT22;38322;53.108;6.308;2024-03-08T19:55:17;4.70;99.90
52397;DHT22;38322;53.108;6.308;2024-03-08T19:57:47;4.70;99.90
52397;DHT22;38322;53.108;6.308;2024-03-08T20:00:16;4.70;99.90
52397;DHT22;38322;53.108;6.308;2024-03-08T20:02:45;4.70;99.90
52397;DHT22;38322;53.108;6.308;2024-03-08T20:05:12;4.70;99.90
52397;DHT22;38322;53.108;6.308;2024-03-08T20:07:40;4.70;99.90
52397;DHT22;38322;53.108;6.308;2024-03-08T20:10:07;4.70;99.90
52397;DHT22;38322;53.108;6.308;2024-03-08T20:12:37;4.70;99.90
52397;DHT22;38322;53.108;6.308;2024-03-08T20:15:05;4.80;99.90
52397;DHT22;38322;53.108;6.308;2024-03-08T20:17:34;4.80;99.90
52397;DHT22;38322;53.108;6.308;2024-03-08T20:20:04;4.70;99.90
52397;DHT22;38322;53.108;6.308;2024-03-08T20:22:31;4.70;99.90
52397;DHT22;38322;53.108;6.308;2024-03-08T20:24:57;4.80;99.90
52397;DHT22;38322;53.108;6.308;2024-03-08T20:27:24;4.80;99.90
52397;DHT22;38322;53.108;6.308;2024-03-08T20:29:53;4.70;99.90
52397;DHT22;38322;53.108;6.308;2024-03-08T20:32:19;4.80;99.90
52397;DHT22;38322;53.108;6.308;2024-03-08T20:34:46;4.70;99.90
52397;DHT22;38322;53.108;6.308;2024-03-08T20:37:12;4.80;99.90
52397;DHT22;38322;53.108;6.308;2024-03-08T20:39:39;4.70;99.90
52397;DHT22;38322;53.108;6.308;2024-03-08T20:42:05;4.70;99.90
52397;DHT22;38322;53.108;6.308;2024-03-08T20:44:32;4.60;99.90
52397;DHT22;38322;53.108;6.308;2024-03-08T20:46:58;4.70;99.90
52397;DHT22;38322;53.108;6.308;2024-03-08T20:49:24;4.60;99.90
52397;DHT22;38322;53.108;6.308;2024-03-08T20:51:50;4.60;99.90
52397;DHT22;38322;53.108;6.308;2024-03-08T20:54:16;4.50;99.90
52397;DHT22;38322;53.108;6.308;2024-03-08T20:56:42;4.60;99.90
52397;DHT22;38322;53.108;6.308;2024-03-08T20:59:08;4.50;99.90
